Terminal Aerodrome Forecast
Issued by NWS Lake Charles, LA

Home | Current Version | Previous Version | Text Only | Print | Product List | Glossary On
Versions: 1 2 3 4 5 6 7 8 9 10 11 12 13
000
FTUS44 KLCH 220500
TAFARA
TAF
KARA 220520Z 2206/2306 VRB03KT P6SM FEW200
     FM221500 19005KT P6SM VCSH FEW050 SCT200=

USA.gov is the U.S. government's official web portal to all federal, state and local government web resources and services.